createdAt,value
2022-08-12T00:03:58.895Z,61.80
2022-08-12T00:08:30.919Z,62.81
2022-08-12T00:12:56.910Z,63.10
2022-08-12T00:17:18.259Z,66.19
2022-08-12T00:21:40.028Z,67.90
2022-08-12T00:26:20.798Z,66.84
2022-08-12T01:13:50.432Z,70.45
2022-08-12T01:42:31.966Z,74.21
2022-08-12T02:40:32.292Z,78.47
2022-08-12T02:54:53.930Z,76.98
2022-08-12T05:40:45.069Z,95.29
2022-08-12T06:31:53.853Z,63.53
2022-08-12T07:10:06.984Z,47.88
2022-08-12T08:04:28.832Z,40.44
2022-08-12T08:08:31.615Z,38.95
2022-08-12T08:12:53.361Z,38.36
2022-08-12T08:16:57.906Z,37.66
2022-08-12T08:21:00.136Z,36.77
2022-08-12T08:25:03.587Z,36.30
2022-08-12T08:29:25.961Z,34.94
2022-08-12T08:34:04.216Z,35.82
2022-08-12T08:37:53.400Z,31.79
2022-08-12T08:42:19.029Z,34.88
2022-08-12T08:46:23.096Z,34.78
2022-08-12T08:50:25.100Z,34.40
2022-08-12T08:54:27.701Z,33.96
2022-08-12T08:58:30.270Z,34.25
2022-08-12T09:02:32.479Z,34.00
2022-08-12T09:06:37.337Z,33.76
2022-08-12T09:10:44.944Z,33.47
2022-08-12T09:15:02.923Z,32.74
2022-08-12T09:19:27.212Z,32.36
2022-08-12T09:27:57.949Z,31.83
2022-08-12T09:32:09.357Z,30.88
2022-08-12T09:36:14.458Z,32.12
2022-08-12T09:40:57.202Z,32.21
2022-08-12T09:45:19.213Z,32.40
2022-08-12T09:49:25.787Z,32.34
2022-08-12T09:53:36.522Z,32.58
2022-08-12T09:58:45.562Z,32.23
2022-08-12T10:02:45.432Z,31.90
2022-08-12T10:06:36.150Z,32.07
2022-08-12T10:11:00.404Z,31.81
2022-08-12T10:15:02.778Z,32.17
2022-08-12T10:19:17.249Z,32.14
2022-08-12T10:23:20.137Z,32.02
2022-08-12T10:28:04.609Z,32.50
2022-08-12T10:32:20.598Z,33.25
2022-08-12T10:36:40.749Z,32.84
2022-08-12T10:41:08.434Z,33.04
2022-08-12T10:45:18.265Z,33.16
2022-08-12T10:50:07.071Z,34.45
2022-08-12T10:53:46.805Z,34.87
2022-08-12T10:58:14.638Z,35.18
2022-08-12T11:04:25.624Z,35.33
2022-08-12T11:07:06.338Z,34.40
2022-08-12T11:11:13.617Z,34.63
2022-08-12T11:15:20.960Z,35.83
2022-08-12T11:19:33.065Z,37.14
2022-08-12T11:23:37.004Z,37.48
2022-08-12T11:27:40.203Z,37.46
2022-08-12T11:32:01.950Z,37.17
2022-08-12T11:36:15.656Z,37.83
2022-08-12T11:44:35.136Z,37.20
2022-08-12T11:48:52.247Z,37.48
2022-08-12T11:52:57.194Z,37.44
2022-08-12T11:57:02.456Z,36.70
2022-08-12T12:05:41.770Z,36.40
2022-08-12T12:09:53.526Z,36.58
2022-08-12T12:14:06.790Z,36.09
2022-08-12T12:18:33.377Z,34.34
2022-08-12T12:22:40.026Z,34.37
2022-08-12T12:26:42.201Z,33.60
2022-08-12T12:30:54.754Z,33.10
2022-08-12T12:35:18.458Z,32.90
2022-08-12T12:39:20.113Z,33.02
2022-08-12T12:43:28.428Z,32.74
2022-08-12T12:47:52.726Z,30.56
2022-08-12T12:52:18.941Z,31.96
2022-08-12T12:56:33.968Z,32.43
2022-08-12T13:00:40.494Z,31.47
2022-08-12T13:04:53.717Z,31.31
2022-08-12T13:08:56.909Z,31.17
2022-08-12T13:14:07.706Z,31.04
2022-08-12T13:18:02.498Z,30.76
2022-08-12T13:22:16.037Z,30.19
2022-08-12T13:26:20.640Z,30.17
2022-08-12T13:30:26.158Z,30.56
2022-08-12T13:34:34.657Z,30.35
2022-08-12T13:38:54.239Z,29.48
2022-08-12T13:42:58.627Z,29.81
2022-08-12T13:47:01.020Z,29.70
2022-08-12T13:51:15.110Z,29.72
2022-08-12T13:55:31.122Z,29.52
2022-08-12T13:59:48.326Z,29.52
2022-08-12T14:03:56.705Z,30.08
2022-08-12T14:08:06.111Z,30.12
2022-08-12T14:12:08.675Z,30.19
2022-08-12T14:16:37.655Z,30.30
2022-08-12T14:20:43.724Z,29.92
2022-08-12T14:24:52.439Z,29.63
2022-08-12T14:28:57.586Z,29.19
2022-08-12T14:33:10.431Z,29.48
2022-08-12T14:37:55.044Z,29.96
2022-08-12T14:41:36.947Z,30.10
2022-08-12T14:45:50.878Z,30.10
2022-08-12T14:50:33.485Z,30.22
2022-08-12T14:58:38.087Z,30.02
2022-08-12T15:02:54.315Z,29.98
2022-08-12T15:06:56.719Z,29.80
2022-08-12T15:10:59.892Z,29.49
2022-08-12T15:15:06.646Z,29.95
2022-08-12T15:20:31.533Z,30.00
2022-08-12T15:23:54.914Z,29.86
2022-08-12T15:28:04.600Z,29.73
2022-08-12T15:32:15.896Z,29.01
2022-08-12T15:36:19.277Z,29.36
2022-08-12T15:40:29.768Z,28.01
2022-08-12T15:44:38.402Z,29.04
2022-08-12T15:48:47.018Z,29.26
2022-08-12T15:52:50.955Z,28.95
2022-08-12T15:56:54.847Z,28.91
2022-08-12T16:00:58.708Z,29.34
2022-08-12T16:05:01.236Z,29.42
2022-08-12T16:09:04.803Z,29.74
2022-08-12T16:13:32.358Z,29.78
2022-08-12T16:18:19.122Z,30.06
2022-08-12T16:22:00.385Z,29.81
2022-08-12T16:26:15.276Z,30.00
2022-08-12T16:30:29.430Z,30.06
2022-08-12T16:34:54.552Z,30.23
2022-08-12T16:39:01.371Z,30.25
2022-08-12T16:43:19.574Z,30.71
2022-08-12T16:47:23.571Z,30.51
2022-08-12T16:51:29.440Z,30.59
2022-08-12T16:55:42.475Z,30.46
2022-08-12T16:59:54.115Z,30.37
2022-08-12T17:04:08.262Z,30.82
2022-08-12T17:08:11.564Z,30.71
2022-08-12T17:12:24.460Z,31.05
2022-08-12T17:16:30.130Z,31.10
2022-08-12T17:20:37.483Z,31.05
2022-08-12T17:24:54.450Z,32.08
2022-08-12T17:28:59.392Z,33.69
2022-08-12T17:33:03.141Z,34.67
2022-08-12T17:37:09.187Z,36.31
2022-08-12T17:41:22.929Z,37.20
2022-08-12T17:45:49.306Z,37.92
2022-08-12T17:50:03.209Z,39.06
2022-08-12T17:54:12.923Z,43.16
2022-08-12T17:58:35.792Z,45.86
2022-08-12T18:02:43.035Z,43.99
2022-08-12T18:51:48.746Z,42.50
2022-08-12T18:55:59.386Z,41.22
2022-08-12T19:00:07.533Z,41.88
2022-08-12T19:04:12.434Z,46.93
2022-08-12T19:08:15.308Z,50.52
2022-08-12T19:12:38.497Z,53.71
2022-08-12T19:16:41.776Z,53.87
2022-08-12T19:20:48.002Z,48.75
2022-08-12T19:25:12.274Z,45.91
2022-08-12T19:29:20.138Z,44.43
2022-08-12T19:33:24.032Z,43.22
2022-08-12T19:38:02.830Z,42.76
2022-08-12T19:42:01.373Z,42.07
2022-08-12T19:46:06.872Z,41.65
2022-08-12T19:50:11.432Z,41.42
2022-08-12T19:54:22.800Z,41.30
2022-08-12T19:58:25.291Z,41.21
2022-08-12T20:02:33.373Z,42.15
2022-08-12T20:06:45.108Z,44.58
2022-08-12T20:10:56.869Z,47.38
2022-08-12T20:15:22.005Z,60.47
2022-08-12T20:20:05.464Z,84.73
2022-08-12T20:24:00.402Z,93.67
2022-08-12T20:28:06.427Z,90.83
2022-08-12T20:32:12.702Z,93.96
2022-08-12T20:36:41.484Z,98.63
2022-08-12T20:40:40.581Z,100.00
2022-08-12T20:44:44.236Z,100.00
2022-08-12T20:48:55.281Z,100.00
2022-08-12T20:53:04.241Z,100.00
2022-08-12T20:57:10.361Z,100.00
2022-08-12T21:01:12.736Z,100.00
2022-08-12T21:06:09.617Z,100.00
2022-08-12T21:10:04.059Z,100.00
2022-08-12T21:14:06.330Z,100.00
2022-08-12T21:18:28.537Z,100.00
2022-08-12T21:22:57.898Z,100.00
2022-08-12T21:27:03.565Z,100.00
2022-08-12T21:32:37.613Z,100.00
2022-08-12T21:35:31.648Z,100.00
2022-08-12T21:39:38.709Z,100.00
2022-08-12T21:43:44.630Z,100.00
2022-08-12T21:47:53.152Z,100.00
2022-08-12T21:51:56.645Z,100.00
2022-08-12T21:56:00.111Z,100.00
2022-08-12T22:00:02.483Z,100.00
2022-08-12T22:04:26.295Z,100.00
2022-08-12T22:08:32.494Z,100.00
2022-08-12T22:12:39.508Z,100.00
2022-08-12T22:31:26.585Z,100.00
2022-08-12T22:35:56.131Z,100.00
